Time;durP1;ratioP1;P1;durP2;ratioP2;P2;SDS_P1;SDS_P2;PMS_P1;PMS_P2;Temp;Humidity;BMP_temperature;BMP_pressure;BME280_temperature;BME280_humidity;BME280_pressure;Samples;Min_cycle;Max_cycle;Signal;HPM_P1;HPM_P2
2023/10/21 00:00:27;;;;;;;;;2.00;0.00;;;;;15.36;52.37;98917.91;5088770;27;45413;-74
2023/10/21 00:02:52;;;;;;;;;0.00;0.00;;;;;15.45;52.39;98933.56;5083734;27;45578;-75
2023/10/21 00:05:18;;;;;;;;;0.00;0.00;;;;;15.47;52.27;98945.81;5087093;27;45526;-72
2023/10/21 00:07:44;;;;;;;;;0.00;0.00;;;;;15.50;52.42;98939.66;5088579;27;45474;-73
2023/10/21 00:10:09;;;;;;;;;0.00;0.00;;;;;15.47;51.79;98940.53;5086300;27;45536;-73
2023/10/21 00:12:36;;;;;;;;;0.00;0.00;;;;;15.58;51.58;98947.41;5081694;27;46142;-74
2023/10/21 00:15:04;;;;;;;;;0.25;0.00;;;;;15.52;51.36;98933.47;5078132;27;45556;-75
2023/10/21 00:17:30;;;;;;;;;0.00;0.00;;;;;15.63;51.25;98945.56;5078245;27;45233;-74
2023/10/21 00:19:55;;;;;;;;;0.00;0.00;;;;;15.64;50.95;98940.28;5077616;27;45446;-74
2023/10/21 00:22:21;;;;;;;;;0.00;0.00;;;;;15.70;50.98;98939.31;5077696;27;45991;-74
2023/10/21 00:24:47;;;;;;;;;0.00;0.00;;;;;15.71;50.70;98938.41;5078149;27;45256;-72
2023/10/21 00:27:12;;;;;;;;;0.00;0.00;;;;;15.71;51.05;98943.69;5078366;28;45396;-74
2023/10/21 00:29:38;;;;;;;;;0.00;0.00;;;;;15.69;51.10;98929.69;5078283;27;45556;-73
2023/10/21 00:32:04;;;;;;;;;0.00;0.00;;;;;15.63;51.40;98941.16;5077789;27;45406;-74
2023/10/21 00:34:31;;;;;;;;;0.00;0.00;;;;;15.58;51.22;98937.75;5077422;27;45489;-75
2023/10/21 00:36:57;;;;;;;;;0.00;0.00;;;;;15.48;51.22;98928.28;5077832;27;45390;-75
2023/10/21 00:39:23;;;;;;;;;0.00;0.00;;;;;15.48;50.98;98938.81;5076706;28;45508;-76
2023/10/21 00:41:48;;;;;;;;;0.00;0.00;;;;;15.46;50.99;98948.50;5077666;28;45549;-73
2023/10/21 00:44:14;;;;;;;;;0.00;0.00;;;;;15.32;51.08;98933.78;5077867;27;45196;-74
2023/10/21 00:46:41;;;;;;;;;0.00;0.00;;;;;15.42;51.04;98947.66;5077642;27;45315;-74
2023/10/21 00:49:06;;;;;;;;;0.00;0.00;;;;;15.45;51.23;98952.00;5077924;27;45394;-73
2023/10/21 00:51:35;;;;;;;;;0.00;0.00;;;;;15.48;51.01;98934.41;5077435;27;45993;-74
2023/10/21 00:54:02;;;;;;;;;0.00;0.00;;;;;15.51;50.51;98944.88;5077524;27;45453;-74
2023/10/21 00:56:29;;;;;;;;;0.00;0.00;;;;;15.52;50.72;98943.13;5077378;27;45299;-73
2023/10/21 00:58:55;;;;;;;;;0.00;0.00;;;;;15.52;51.00;98937.88;5077576;27;45466;-74
2023/10/21 01:01:21;;;;;;;;;0.00;0.00;;;;;15.52;50.81;98936.09;5077369;27;46083;-74
2023/10/21 01:03:47;;;;;;;;;0.00;0.00;;;;;15.38;50.40;98919.66;5077721;27;45192;-72
2023/10/21 01:06:14;;;;;;;;;0.00;0.00;;;;;15.42;50.76;98931.88;5076168;28;45297;-72
2023/10/21 01:08:44;;;;;;;;;0.00;0.00;;;;;15.31;50.21;98934.66;5077638;27;45282;-72
2023/10/21 01:11:10;;;;;;;;;0.00;0.00;;;;;15.33;50.31;98932.00;5077152;27;45433;-72
2023/10/21 01:13:36;;;;;;;;;0.00;0.00;;;;;15.28;50.10;98942.59;5077093;27;45419;-72
2023/10/21 01:16:02;;;;;;;;;0.00;0.00;;;;;15.25;50.06;98940.00;5077244;27;45425;-72
2023/10/21 01:18:33;;;;;;;;;0.00;0.00;;;;;15.24;50.65;98940.03;5077544;28;45337;-72
2023/10/21 01:21:00;;;;;;;;;0.00;0.00;;;;;15.21;50.48;98942.72;5077225;27;45369;-74
2023/10/21 01:23:25;;;;;;;;;0.00;0.00;;;;;15.14;50.67;98934.06;5077168;28;45401;-74
2023/10/21 01:25:51;;;;;;;;;0.00;0.00;;;;;15.10;50.15;98940.25;5077385;27;45491;-73
2023/10/21 01:28:17;;;;;;;;;0.00;0.00;;;;;15.07;50.41;98935.88;5077744;27;45665;-74
2023/10/21 01:30:42;;;;;;;;;0.00;0.00;;;;;15.05;50.28;98944.69;5076927;27;45316;-74
2023/10/21 01:33:08;;;;;;;;;0.00;0.00;;;;;15.06;50.34;98946.41;5077065;27;45259;-74
2023/10/21 01:35:33;;;;;;;;;0.00;0.00;;;;;15.10;50.22;98950.78;5077283;27;45475;-74
2023/10/21 01:37:59;;;;;;;;;0.33;0.00;;;;;15.09;50.21;98951.66;5077395;27;45264;-74
2023/10/21 01:40:25;;;;;;;;;0.00;0.00;;;;;15.11;50.29;98952.50;5076958;27;46044;-73
2023/10/21 01:42:50;;;;;;;;;0.00;0.00;;;;;15.11;50.25;98944.59;5077439;27;45347;-74
2023/10/21 01:45:16;;;;;;;;;0.00;0.00;;;;;15.11;50.05;98957.75;5077327;27;45378;-74
2023/10/21 01:47:41;;;;;;;;;0.00;0.00;;;;;15.03;49.99;98976.25;5077272;27;45493;-75
2023/10/21 01:50:08;;;;;;;;;0.00;0.00;;;;;14.71;50.47;98926.72;5076731;27;45508;-72
2023/10/21 01:52:37;;;;;;;;;0.00;0.00;;;;;14.90;50.43;98954.53;5076895;27;45367;-72
2023/10/21 01:55:04;;;;;;;;;0.00;0.00;;;;;14.90;50.46;98958.91;5076753;27;45429;-72
2023/10/21 01:57:34;;;;;;;;;0.00;0.00;;;;;14.86;51.07;98967.72;5076844;27;45458;-72
2023/10/21 02:00:01;;;;;;;;;0.00;0.00;;;;;14.80;50.92;98955.53;5076511;27;45413;-72
2023/10/21 02:02:27;;;;;;;;;0.00;0.00;;;;;14.79;51.07;98955.56;5076854;27;45335;-72
2023/10/21 02:04:52;;;;;;;;;0.00;0.00;;;;;14.74;51.03;98955.59;5077260;27;45449;-73
2023/10/21 02:07:19;;;;;;;;;0.00;0.00;;;;;14.71;51.15;98963.53;5077524;28;45240;-74
2023/10/21 02:09:45;;;;;;;;;0.00;0.00;;;;;14.68;51.30;98963.56;5080066;27;45552;-74
2023/10/21 02:12:10;;;;;;;;;0.00;0.00;;;;;14.66;51.35;98962.69;5079952;27;45324;-74
2023/10/21 02:14:36;;;;;;;;;0.00;0.00;;;;;14.61;51.60;98954.88;5080120;27;45322;-74
2023/10/21 02:17:02;;;;;;;;;0.00;0.00;;;;;14.55;51.35;98960.19;5080237;27;45248;-73
2023/10/21 02:19:27;;;;;;;;;1.00;0.00;;;;;14.57;51.57;98954.94;5079850;28;46026;-73
2023/10/21 02:21:53;;;;;;;;;0.00;0.00;;;;;14.58;51.51;98954.91;5080482;27;45935;-74
2023/10/21 02:24:19;;;;;;;;;0.00;0.00;;;;;14.57;51.48;98954.94;5078890;27;45500;-73
2023/10/21 02:26:45;;;;;;;;;0.00;0.00;;;;;14.53;51.60;98954.06;5080145;27;45413;-74
2023/10/21 02:29:11;;;;;;;;;0.00;0.00;;;;;14.57;51.77;98957.59;5079616;27;45498;-73
2023/10/21 02:31:37;;;;;;;;;0.00;0.00;;;;;14.60;51.69;98950.50;5079943;27;45406;-74
2023/10/21 02:34:03;;;;;;;;;0.00;0.00;;;;;14.62;51.31;98956.63;5079548;27;45323;-74
2023/10/21 02:36:29;;;;;;;;;0.00;0.00;;;;;14.57;51.62;98944.44;5079919;27;45297;-73
2023/10/21 02:38:54;;;;;;;;;0.67;0.00;;;;;14.61;51.73;98957.50;5079360;27;45973;-72
2023/10/21 02:41:20;;;;;;;;;0.00;0.00;;;;;14.52;51.99;98961.09;5078461;28;45411;-74
2023/10/21 02:43:46;;;;;;;;;0.00;0.00;;;;;14.56;51.47;98953.16;5079840;27;45494;-74
2023/10/21 02:46:13;;;;;;;;;0.00;0.00;;;;;14.50;51.56;98944.47;5079878;27;45356;-74
2023/10/21 02:48:43;;;;;;;;;0.00;0.00;;;;;14.22;51.32;98907.13;5079614;28;45207;-74
2023/10/21 02:51:17;;;;;;;;;0.00;0.00;;;;;14.49;51.70;98947.97;5079318;28;45454;-74
2023/10/21 02:53:44;;;;;;;;;0.00;0.00;;;;;14.51;51.50;98947.97;5079278;27;45508;-73
2023/10/21 02:56:11;;;;;;;;;0.00;0.00;;;;;14.52;51.50;98944.44;5079520;28;45442;-74
2023/10/21 02:58:36;;;;;;;;;0.00;0.00;;;;;14.52;51.08;98950.59;5079088;27;45469;-73
2023/10/21 03:01:16;;;;;;;;;0.00;0.00;;;;;14.51;51.32;98955.84;5079163;28;45374;-74
2023/10/21 03:03:43;;;;;;;;;0.00;0.00;;;;;14.48;51.41;98951.50;5079260;27;45381;-74
2023/10/21 03:06:10;;;;;;;;;0.00;0.00;;;;;14.49;51.19;98957.63;5079440;27;45503;-74
2023/10/21 03:08:39;;;;;;;;;0.00;0.00;;;;;14.37;51.64;98956.00;5078919;27;46191;-74
2023/10/21 03:11:06;;;;;;;;;0.00;0.00;;;;;14.35;51.51;98957.78;5079086;27;45349;-73
2023/10/21 03:13:35;;;;;;;;;0.00;0.00;;;;;14.32;51.66;98961.31;5079207;27;45678;-74
2023/10/21 03:16:05;;;;;;;;;0.00;0.00;;;;;14.35;51.81;98964.81;5079315;27;45406;-74
2023/10/21 03:18:31;;;;;;;;;0.00;0.00;;;;;14.30;51.76;98962.19;5078907;27;46218;-74
2023/10/21 03:20:56;;;;;;;;;0.00;0.00;;;;;14.28;51.65;98964.88;5079393;27;45398;-74
2023/10/21 03:23:22;;;;;;;;;0.00;0.00;;;;;14.26;51.33;98952.63;5079309;27;45353;-74
2023/10/21 03:26:01;;;;;;;;;0.00;0.00;;;;;14.29;51.92;98960.47;5079257;27;45449;-74
2023/10/21 03:28:28;;;;;;;;;0.00;0.00;;;;;14.31;51.81;98958.69;5079110;27;46076;-72
2023/10/21 03:31:00;;;;;;;;;0.00;0.00;;;;;14.35;51.74;98960.41;5079109;27;45220;-73
2023/10/21 03:33:27;;;;;;;;;0.00;0.00;;;;;14.39;51.57;98964.75;5078925;27;45538;-74
2023/10/21 03:35:54;;;;;;;;;0.00;0.00;;;;;14.39;51.29;98956.84;5079284;27;45403;-74
2023/10/21 03:38:21;;;;;;;;;0.00;0.00;;;;;14.35;51.75;98960.41;5078591;27;46126;-74
2023/10/21 03:41:04;;;;;;;;;0.00;0.00;;;;;14.23;52.60;98964.03;5078537;27;45762;-74
2023/10/21 03:43:30;;;;;;;;;0.00;0.00;;;;;14.15;53.37;98962.38;5078490;27;45434;-74
2023/10/21 03:45:56;;;;;;;;;0.00;0.00;;;;;14.08;53.13;98964.19;5079094;28;45464;-74
2023/10/21 03:48:22;;;;;;;;;0.00;0.00;;;;;14.03;53.51;98964.22;5078444;28;46166;-74
2023/10/21 03:50:49;;;;;;;;;0.00;0.00;;;;;14.03;53.36;98968.63;5078446;27;45238;-74
2023/10/21 03:53:15;;;;;;;;;0.00;0.00;;;;;14.01;53.69;98971.25;5078623;27;45243;-74
2023/10/21 03:55:43;;;;;;;;;0.00;0.00;;;;;14.01;53.37;98963.38;5078723;27;45290;-74
2023/10/21 03:58:10;;;;;;;;;0.00;0.00;;;;;14.00;53.39;98966.00;5078100;28;45449;-75
2023/10/21 04:00:39;;;;;;;;;0.00;0.00;;;;;13.90;53.58;98957.34;5078283;27;45507;-74
2023/10/21 04:03:07;;;;;;;;;0.00;0.00;;;;;13.94;53.94;98969.56;5078262;27;45366;-73
2023/10/21 04:05:33;;;;;;;;;0.00;0.00;;;;;13.91;54.03;98969.59;5078363;27;45516;-73
2023/10/21 04:07:59;;;;;;;;;0.00;0.00;;;;;13.88;54.52;98962.59;5078214;28;46116;-73
2023/10/21 04:10:25;;;;;;;;;0.00;0.00;;;;;13.89;54.27;98981.88;5078698;27;45258;-74
2023/10/21 04:12:50;;;;;;;;;0.00;0.00;;;;;13.90;54.20;98978.34;5078175;27;45484;-74
2023/10/21 04:15:16;;;;;;;;;0.00;0.00;;;;;13.79;55.25;98972.34;5078328;27;45594;-74
2023/10/21 04:17:45;;;;;;;;;0.00;0.00;;;;;13.72;55.51;98980.22;5078037;27;45854;-74
2023/10/21 04:20:16;;;;;;;;;0.00;0.00;;;;;13.68;55.19;98972.41;5077647;28;45325;-71
2023/10/21 04:22:43;;;;;;;;;0.00;0.00;;;;;13.64;55.55;98978.56;5078049;27;45476;-72
2023/10/21 04:25:09;;;;;;;;;0.00;0.00;;;;;13.62;56.58;98980.31;5077240;28;45539;-74
2023/10/21 04:27:35;;;;;;;;;0.00;0.00;;;;;13.52;56.96;98969.03;5076829;27;46134;-74
2023/10/21 04:30:01;;;;;;;;;0.00;0.00;;;;;13.39;56.45;98956.88;5076325;27;45581;-72
2023/10/21 04:32:27;;;;;;;;;0.33;0.00;;;;;13.61;56.45;98991.69;5077409;27;45290;-74
2023/10/21 04:34:52;;;;;;;;;0.00;0.00;;;;;13.56;56.93;98985.63;5077218;27;45465;-74
2023/10/21 04:37:18;;;;;;;;;0.00;0.00;;;;;13.53;57.67;98990.00;5076596;27;45510;-74
2023/10/21 04:39:44;;;;;;;;;0.33;0.00;;;;;13.53;57.69;98989.16;5076810;27;45167;-74
2023/10/21 04:42:10;;;;;;;;;1.00;0.00;;;;;13.40;57.71;98964.72;5077014;27;45306;-74
2023/10/21 04:44:36;;;;;;;;;0.00;0.00;;;;;13.58;58.04;98995.22;5077334;27;45476;-74
2023/10/21 04:47:02;;;;;;;;;1.00;1.00;;;;;13.52;57.91;98976.88;5076514;27;46091;-72
2023/10/21 04:49:27;;;;;;;;;0.67;0.67;;;;;13.57;58.34;99001.34;5077169;27;45509;-74
2023/10/21 04:51:53;;;;;;;;;0.00;0.00;;;;;13.55;58.05;99002.22;5077348;27;46489;-74
2023/10/21 04:54:19;;;;;;;;;0.50;0.50;;;;;13.57;58.14;98998.72;5077924;28;45326;-74
2023/10/21 04:56:45;;;;;;;;;0.00;0.00;;;;;13.60;58.72;99001.31;5077275;27;46051;-74
2023/10/21 04:59:10;;;;;;;;;0.75;0.00;;;;;13.60;58.39;99011.81;5077425;27;45312;-74
2023/10/21 05:01:36;;;;;;;;;1.00;0.25;;;;;13.53;58.62;99004.88;5077543;27;45508;-74
2023/10/21 05:04:02;;;;;;;;;0.00;0.00;;;;;13.52;58.31;99008.38;5077684;27;45421;-72
2023/10/21 05:06:27;;;;;;;;;0.00;0.00;;;;;13.51;58.30;99012.75;5077556;27;45438;-75
2023/10/21 05:08:53;;;;;;;;;2.00;2.00;;;;;13.38;58.90;98991.84;5077384;27;45328;-75
2023/10/21 05:11:19;;;;;;;;;1.50;0.75;;;;;13.50;58.39;99018.88;5077367;27;45488;-75
2023/10/21 05:13:45;;;;;;;;;1.00;1.00;;;;;13.51;58.58;99019.78;5077881;27;45302;-74
2023/10/21 05:16:11;;;;;;;;;1.00;0.75;;;;;13.49;58.77;99022.38;5077297;27;45340;-74
2023/10/21 05:18:38;;;;;;;;;1.00;0.00;;;;;13.46;59.00;99029.41;5077135;27;45733;-73
2023/10/21 05:21:07;;;;;;;;;1.50;1.00;;;;;13.48;58.73;99028.50;5077272;27;45295;-73
2023/10/21 05:23:33;;;;;;;;;0.75;0.00;;;;;13.46;58.84;99024.16;5077551;27;45938;-74
2023/10/21 05:25:59;;;;;;;;;0.00;0.00;;;;;13.46;58.91;99029.41;5077213;28;45598;-73
2023/10/21 05:28:25;;;;;;;;;0.00;0.00;;;;;13.40;58.52;99024.19;5077214;27;45283;-74
2023/10/21 05:30:50;;;;;;;;;0.00;0.00;;;;;13.46;58.21;99032.03;5077002;27;45375;-74
2023/10/21 05:33:16;;;;;;;;;0.00;0.00;;;;;13.44;58.51;99028.53;5077363;27;45284;-73
2023/10/21 05:35:42;;;;;;;;;2.75;2.00;;;;;12.90;58.62;98952.78;5077069;28;45406;-74
2023/10/21 05:38:08;;;;;;;;;0.00;0.00;;;;;13.39;58.22;99046.03;5077078;28;45544;-74
2023/10/21 05:40:35;;;;;;;;;1.00;1.00;;;;;13.38;58.58;99044.31;5077421;27;45561;-74
2023/10/21 05:43:01;;;;;;;;;1.50;1.00;;;;;13.35;58.56;99054.81;5078982;27;45336;-74
2023/10/21 05:45:26;;;;;;;;;0.00;0.00;;;;;13.35;58.90;99052.19;5080240;27;46109;-74
2023/10/21 05:47:53;;;;;;;;;1.00;0.00;;;;;13.33;59.30;99060.09;5080401;27;45330;-73
2023/10/21 05:50:21;;;;;;;;;1.00;0.00;;;;;13.32;58.99;99059.19;5080658;27;45480;-75
2023/10/21 05:52:47;;;;;;;;;1.50;1.00;;;;;13.36;59.12;99049.56;5080601;27;45308;-74
2023/10/21 05:55:12;;;;;;;;;0.00;0.00;;;;;13.45;58.65;99053.88;5080173;27;46121;-73
2023/10/21 05:57:38;;;;;;;;;0.00;0.00;;;;;13.51;59.06;99062.59;5080130;27;45349;-73
2023/10/21 06:00:07;;;;;;;;;0.50;0.50;;;;;13.47;58.88;99047.75;5080687;27;45369;-74
2023/10/21 06:02:33;;;;;;;;;0.00;0.00;;;;;13.56;58.53;99065.19;5080816;28;45224;-74
2023/10/21 06:04:58;;;;;;;;;1.50;1.00;;;;;13.69;58.56;99066.88;5080034;27;45317;-74
2023/10/21 06:07:24;;;;;;;;;1.00;1.00;;;;;13.73;58.50;99075.59;5080144;27;45477;-74
2023/10/21 06:09:50;;;;;;;;;0.00;0.00;;;;;13.79;58.18;99072.94;5085165;27;45378;-74
2023/10/21 06:12:15;;;;;;;;;0.75;0.75;;;;;13.59;58.36;99030.19;5090008;27;45457;-73
2023/10/21 06:14:41;;;;;;;;;1.00;1.00;;;;;14.00;58.08;99081.53;5088511;27;46083;-74
2023/10/21 06:17:07;;;;;;;;;0.25;0.25;;;;;14.04;57.95;99081.47;5090176;27;45409;-74
2023/10/21 06:19:32;;;;;;;;;1.50;0.75;;;;;14.10;57.53;99073.56;5089341;27;45487;-73
2023/10/21 06:21:58;;;;;;;;;0.00;0.00;;;;;14.19;56.77;99088.38;5089212;27;45471;-73
2023/10/21 06:24:25;;;;;;;;;1.25;1.00;;;;;14.24;56.45;99069.94;5090008;27;46136;-72
2023/10/21 06:26:50;;;;;;;;;0.50;0.50;;;;;14.35;56.25;99076.00;5088430;27;45456;-74
2023/10/21 06:29:17;;;;;;;;;0.00;0.00;;;;;14.40;56.10;99081.19;5089252;27;45554;-74
2023/10/21 06:31:42;;;;;;;;;1.00;0.00;;;;;14.33;56.10;99080.38;5090201;27;45183;-73
2023/10/21 06:34:08;;;;;;;;;0.00;0.00;;;;;14.36;55.71;99080.34;5087611;27;45414;-73
2023/10/21 06:36:34;;;;;;;;;1.00;0.00;;;;;14.17;55.18;99063.03;5089753;27;45625;-73
2023/10/21 06:39:00;;;;;;;;;1.00;0.00;;;;;14.00;55.78;99043.00;5089633;27;45463;-72
2023/10/21 06:41:26;;;;;;;;;1.00;0.75;;;;;14.31;55.77;99105.81;5088039;27;45447;-74
2023/10/21 06:43:52;;;;;;;;;2.00;2.00;;;;;14.30;56.04;99104.03;5089333;27;45540;-73
2023/10/21 06:46:18;;;;;;;;;2.00;1.00;;;;;14.27;55.44;99101.47;5089188;27;45503;-75
2023/10/21 06:48:44;;;;;;;;;0.33;0.33;;;;;14.22;54.83;99092.72;5087833;27;45404;-72
2023/10/21 06:51:10;;;;;;;;;0.00;0.00;;;;;14.29;55.30;99113.69;5089928;27;45376;-73
2023/10/21 06:53:35;;;;;;;;;0.00;0.00;;;;;14.19;55.16;99111.16;5088272;27;45434;-73
2023/10/21 06:56:01;;;;;;;;;1.00;0.00;;;;;14.23;55.42;99115.50;5087862;27;45502;-73
2023/10/21 06:58:27;;;;;;;;;0.25;0.00;;;;;14.21;54.91;99117.28;5089532;27;45605;-74
2023/10/21 07:00:53;;;;;;;;;1.00;1.00;;;;;14.22;54.86;99126.88;5088413;27;45459;-73
2023/10/21 07:03:19;;;;;;;;;0.00;0.00;;;;;14.22;55.04;99105.88;5088468;27;45438;-74
2023/10/21 07:05:45;;;;;;;;;0.00;0.00;;;;;14.33;54.57;99131.16;5089381;27;45569;-72
2023/10/21 07:08:11;;;;;;;;;0.75;0.25;;;;;14.27;54.88;99127.72;5087561;27;45497;-72
2023/10/21 07:10:39;;;;;;;;;1.00;1.00;;;;;14.20;54.94;99118.13;5087393;27;45630;-72
2023/10/21 07:13:04;;;;;;;;;0.00;0.00;;;;;14.27;55.08;99140.84;5089540;27;46234;-73
2023/10/21 07:15:33;;;;;;;;;0.50;0.50;;;;;14.31;55.09;99153.94;5087418;27;45335;-73
2023/10/21 07:17:59;;;;;;;;;0.50;0.00;;;;;14.24;55.53;99154.88;5088057;27;46754;-72
2023/10/21 07:20:28;;;;;;;;;1.00;1.00;;;;;14.28;54.88;99160.97;5089265;27;45456;-74
2023/10/21 07:22:54;;;;;;;;;3.75;3.75;;;;;14.17;54.97;99140.06;5087724;27;45524;-73
2023/10/21 07:25:21;;;;;;;;;1.25;1.00;;;;;14.27;55.42;99159.25;5087330;27;45420;-72
2023/10/21 07:27:47;;;;;;;;;1.00;1.00;;;;;14.39;55.46;99174.03;5089136;27;45364;-73
2023/10/21 07:30:24;;;;;;;;;0.50;0.00;;;;;14.44;55.09;99177.50;5077224;27;45254;-71
2023/10/21 07:32:50;;;;;;;;;0.00;0.00;;;;;14.59;54.09;99173.91;5075078;28;45676;-71
2023/10/21 07:35:16;;;;;;;;;0.00;0.00;;;;;14.59;53.73;99147.63;5077017;28;45468;-73
2023/10/21 07:37:44;;;;;;;;;1.00;1.00;;;;;14.79;53.66;99158.84;5077231;27;45490;-72
2023/10/21 07:40:11;;;;;;;;;0.00;0.00;;;;;14.93;53.21;99160.47;5074927;28;45433;-72
2023/10/21 07:42:37;;;;;;;;;0.00;0.00;;;;;15.50;52.11;99142.28;5077455;27;45430;-73
2023/10/21 07:45:05;;;;;;;;;0.00;0.00;;;;;17.98;48.15;99175.88;5077597;27;45526;-73
2023/10/21 07:47:33;;;;;;;;;1.00;1.00;;;;;20.02;43.68;99177.66;5075694;28;45594;-72
2023/10/21 07:50:02;;;;;;;;;1.00;1.00;;;;;21.30;41.49;99119.47;5077720;27;45391;-73
2023/10/21 07:52:28;;;;;;;;;0.33;0.33;;;;;22.62;39.18;99163.09;5077141;27;45301;-72
2023/10/21 07:54:53;;;;;;;;;1.00;1.00;;;;;23.67;37.20;99171.03;5077711;28;45789;-73
2023/10/21 07:57:19;;;;;;;;;2.00;1.00;;;;;24.37;34.35;99157.06;5077969;27;45637;-72
2023/10/21 07:59:47;;;;;;;;;1.00;0.67;;;;;25.06;34.58;99141.19;5077674;28;45351;-72
2023/10/21 08:02:13;;;;;;;;;1.00;1.00;;;;;25.93;32.92;99168.63;5077347;27;45610;-72
2023/10/21 08:04:39;;;;;;;;;1.00;1.00;;;;;26.50;31.32;99178.81;5076824;27;45536;-72
2023/10/21 08:07:05;;;;;;;;;0.00;0.00;;;;;26.68;30.57;99163.53;5077244;27;45321;-72
2023/10/21 08:09:31;;;;;;;;;0.00;0.00;;;;;27.07;31.13;99180.84;5078045;28;45321;-72
2023/10/21 08:11:56;;;;;;;;;3.00;1.33;;;;;27.71;29.38;99189.47;5078039;28;45488;-73
2023/10/21 08:14:22;;;;;;;;;0.00;0.00;;;;;28.12;29.66;99186.03;5078619;27;45463;-76
2023/10/21 08:16:47;;;;;;;;;1.00;1.00;;;;;28.67;28.87;99178.03;5077586;27;45480;-74
2023/10/21 08:19:13;;;;;;;;;0.00;0.00;;;;;29.08;27.32;99175.22;5077543;28;45563;-75
2023/10/21 08:21:39;;;;;;;;;1.00;0.33;;;;;29.00;28.36;99179.41;5078068;28;45988;-73
2023/10/21 08:24:05;;;;;;;;;0.67;0.67;;;;;29.25;28.20;99184.88;5077087;27;46004;-76
2023/10/21 08:26:31;;;;;;;;;0.00;0.00;;;;;29.62;26.59;99162.59;5077032;27;45500;-75
2023/10/21 08:28:57;;;;;;;;;0.00;0.00;;;;;30.01;26.15;99187.66;5077048;27;45429;-72
2023/10/21 08:31:24;;;;;;;;;1.00;0.00;;;;;29.91;26.84;99190.16;5076851;27;46202;-71
2023/10/21 08:33:53;;;;;;;;;5.00;4.00;;;;;30.19;25.13;99182.78;5076809;27;45420;-71
2023/10/21 08:36:20;;;;;;;;;1.00;1.00;;;;;30.21;25.71;99184.38;5077451;27;45381;-72
2023/10/21 08:38:53;;;;;;;;;0.00;0.00;;;;;30.54;26.18;99190.97;5076874;27;45904;-71
2023/10/21 08:41:19;;;;;;;;;0.00;0.00;;;;;30.39;25.87;99203.75;5076681;28;45425;-71
2023/10/21 08:43:46;;;;;;;;;0.00;0.00;;;;;30.59;25.91;99204.97;5076700;27;45334;-72
2023/10/21 08:46:14;;;;;;;;;0.00;0.00;;;;;30.59;25.48;99178.00;5076820;27;45358;-71
2023/10/21 08:48:43;;;;;;;;;0.33;0.33;;;;;30.66;24.73;99197.25;5076893;28;45435;-72
2023/10/21 08:51:10;;;;;;;;;1.00;1.00;;;;;30.70;24.04;99207.72;5076378;27;45584;-72
2023/10/21 08:53:40;;;;;;;;;2.33;2.33;;;;;30.58;25.39;99200.56;5077190;27;45445;-72
2023/10/21 08:56:05;;;;;;;;;0.33;0.00;;;;;30.66;24.19;99225.09;5077074;27;45323;-83
2023/10/21 08:58:31;;;;;;;;;2.00;2.00;;;;;30.81;24.61;99215.00;5076554;27;45423;-71
2023/10/21 09:00:58;;;;;;;;;1.67;1.00;;;;;30.84;24.91;99221.97;5075918;27;46253;-72
2023/10/21 09:03:25;;;;;;;;;1.00;0.67;;;;;30.64;24.68;99224.34;5076812;27;45441;-71
2023/10/21 09:06:11;;;;;;;;;0.00;0.00;;;;;30.24;24.14;99227.25;5076986;27;45215;-72
2023/10/21 09:08:40;;;;;;;;;0.00;0.00;;;;;30.37;23.67;99234.47;5077574;28;45232;-72
2023/10/21 09:11:07;;;;;;;;;11.00;10.00;;;;;30.25;23.65;99199.34;5076902;27;46480;-71
2023/10/21 09:13:37;;;;;;;;;0.00;0.00;;;;;30.45;25.40;99234.78;5077087;27;45613;-71
2023/10/21 09:16:06;;;;;;;;;0.33;0.00;;;;;30.39;25.15;99224.44;5077415;27;45369;-71
2023/10/21 09:18:35;;;;;;;;;0.00;0.00;;;;;30.22;24.69;99236.41;5080945;27;45290;-71
2023/10/21 09:21:02;;;;;;;;;0.00;0.00;;;;;29.39;24.71;99235.03;5080377;27;45536;-72
2023/10/21 09:23:28;;;;;;;;;0.00;0.00;;;;;29.20;25.23;99242.63;5080429;27;45511;-71
2023/10/21 09:25:54;;;;;;;;;1.00;1.00;;;;;28.94;26.92;99218.34;5080742;27;45419;-71
2023/10/21 09:28:21;;;;;;;;;1.00;0.00;;;;;28.83;25.98;99243.25;5080985;27;45457;-71
2023/10/21 09:31:02;;;;;;;;;1.67;1.67;;;;;28.48;26.93;99243.69;5080375;27;46117;-71
2023/10/21 09:33:28;;;;;;;;;1.00;0.00;;;;;28.42;26.15;99251.31;5080883;27;45262;-71
2023/10/21 09:36:01;;;;;;;;;0.33;0.00;;;;;28.17;26.28;99228.69;5080586;27;45380;-71
2023/10/21 09:38:27;;;;;;;;;1.00;1.00;;;;;28.02;26.43;99259.22;5080927;27;45928;-72
2023/10/21 09:40:53;;;;;;;;;4.33;4.00;;;;;27.71;27.33;99253.88;5080273;27;45867;-72
2023/10/21 09:43:21;;;;;;;;;0.00;0.00;;;;;27.81;26.96;99259.53;5080332;27;45287;-71
2023/10/21 09:45:48;;;;;;;;;1.00;0.00;;;;;27.41;27.14;99264.66;5080285;27;45406;-71
2023/10/21 09:48:14;;;;;;;;;0.00;0.00;;;;;26.71;27.67;99265.13;5080611;27;45293;-72
2023/10/21 09:50:49;;;;;;;;;0.33;0.33;;;;;26.33;28.58;99268.13;5080145;27;45584;-71
2023/10/21 09:53:16;;;;;;;;;0.00;0.00;;;;;26.38;28.16;99274.09;5080339;27;45318;-72
2023/10/21 09:55:42;;;;;;;;;1.00;1.00;;;;;26.19;27.94;99254.63;5080227;28;45389;-71
2023/10/21 09:58:12;;;;;;;;;2.00;1.00;;;;;26.23;28.48;99250.84;5080132;27;45321;-73
2023/10/21 10:00:39;;;;;;;;;3.00;2.67;;;;;26.33;28.55;99270.78;5079853;27;46210;-72
2023/10/21 10:03:06;;;;;;;;;6.33;6.33;;;;;25.93;29.15;99243.53;5079685;27;45474;-71
2023/10/21 10:05:33;;;;;;;;;4.00;2.00;;;;;26.21;28.80;99273.28;5079872;27;45501;-71
2023/10/21 10:07:59;;;;;;;;;1.00;1.00;;;;;26.18;29.09;99277.88;5080449;27;45251;-72
2023/10/21 10:10:25;;;;;;;;;2.33;2.00;;;;;26.19;28.54;99270.69;5079714;28;45437;-71
2023/10/21 10:13:13;;;;;;;;;2.33;2.33;;;;;26.30;28.26;99283.47;5079761;27;45595;-71
2023/10/21 10:15:41;;;;;;;;;1.00;0.00;;;;;26.28;28.93;99286.25;5079896;27;45308;-72
2023/10/21 10:18:09;;;;;;;;;1.00;1.00;;;;;26.16;28.81;99286.91;5080155;27;45394;-72
2023/10/21 10:20:44;;;;;;;;;2.00;2.00;;;;;26.29;28.41;99282.63;5079585;27;45619;-72
2023/10/21 10:23:11;;;;;;;;;0.00;0.00;;;;;25.99;28.65;99290.50;5079597;27;45428;-72
2023/10/21 10:25:38;;;;;;;;;1.00;0.00;;;;;25.85;28.73;99280.53;5079759;28;45519;-72
2023/10/21 10:28:07;;;;;;;;;4.00;3.00;;;;;25.73;28.94;99279.34;5079030;27;45594;-71
2023/10/21 10:30:35;;;;;;;;;13.33;13.00;;;;;25.73;29.77;99283.84;5078786;27;45457;-73
2023/10/21 10:33:06;;;;;;;;;3.00;3.00;;;;;25.70;28.58;99276.81;5079395;27;45585;-73
2023/10/21 10:35:39;;;;;;;;;8.00;8.00;;;;;25.67;28.37;99276.16;5079562;27;45159;-77
2023/10/21 10:38:25;;;;;;;;;0.67;0.00;;;;;25.51;28.05;99279.63;5079594;27;45424;-74
2023/10/21 10:41:15;;;;;;;;;2.00;1.33;;;;;25.66;28.33;99272.59;5078970;27;45255;-73
2023/10/21 10:43:44;;;;;;;;;1.00;1.00;;;;;25.57;28.14;99279.28;5079050;27;45259;-73
2023/10/21 10:46:11;;;;;;;;;1.00;1.00;;;;;25.32;28.71;99277.00;5079183;27;45562;-76
2023/10/21 10:48:39;;;;;;;;;2.00;1.67;;;;;25.34;28.99;99276.94;5079516;27;45300;-74
2023/10/21 10:51:15;;;;;;;;;1.00;1.00;;;;;25.06;29.59;99272.97;5078468;27;45536;-73
2023/10/21 10:53:52;;;;;;;;;1.00;1.00;;;;;24.97;29.06;99284.13;5079091;27;45309;-75
2023/10/21 10:56:21;;;;;;;;;2.00;1.00;;;;;24.64;29.23;99290.16;5079155;27;45255;-75
2023/10/21 10:58:47;;;;;;;;;1.33;1.33;;;;;24.52;29.87;99285.41;5078758;27;45219;-74
2023/10/21 11:01:26;;;;;;;;;1.00;1.00;;;;;24.51;30.46;99292.56;5078767;28;45474;-76
2023/10/21 11:03:56;;;;;;;;;4.67;4.67;;;;;24.66;30.15;99296.28;5078513;27;45572;-74
2023/10/21 11:06:23;;;;;;;;;0.00;0.00;;;;;24.48;30.41;99295.31;5079165;27;45385;-73
2023/10/21 11:08:50;;;;;;;;;1.00;1.00;;;;;24.53;30.84;99303.13;5079070;27;45267;-74
2023/10/21 11:11:15;;;;;;;;;1.00;1.00;;;;;24.51;30.83;99308.56;5078637;27;46258;-75
2023/10/21 11:13:43;;;;;;;;;2.33;2.33;;;;;24.43;30.11;99302.66;5078789;27;45302;-73
2023/10/21 11:16:08;;;;;;;;;2.00;1.00;;;;;24.21;30.86;99309.03;5078881;27;45539;-74
2023/10/21 11:18:38;;;;;;;;;1.00;0.00;;;;;24.33;30.70;99304.94;5079118;28;45477;-74
2023/10/21 11:21:05;;;;;;;;;2.33;1.33;;;;;24.41;31.58;99299.19;5078990;28;45356;-75
2023/10/21 11:23:30;;;;;;;;;2.00;2.00;;;;;24.60;30.53;99304.59;5078897;27;45313;-74
2023/10/21 11:25:59;;;;;;;;;0.00;0.00;;;;;24.88;30.32;99305.94;5078755;27;45437;-76
2023/10/21 11:28:25;;;;;;;;;0.00;0.00;;;;;24.96;29.64;99304.59;5077486;27;45515;-74
2023/10/21 11:30:52;;;;;;;;;0.33;0.00;;;;;24.96;29.81;99303.75;5077122;28;45603;-72
2023/10/21 11:33:18;;;;;;;;;0.00;0.00;;;;;24.89;30.22;99283.59;5078586;28;45250;-77